createdAt,value
2023-01-01T00:00:51.681Z,100634.34
2023-01-01T00:03:40.672Z,100632.44
2023-01-01T00:06:10.737Z,100634.28
2023-01-01T00:08:40.650Z,100640.44
2023-01-01T00:11:11.490Z,100631.56
2023-01-01T00:13:44.479Z,100629.72
2023-01-01T00:16:15.748Z,100628.94
2023-01-01T00:18:44.366Z,100634.13
2023-01-01T00:21:15.126Z,100632.25
2023-01-01T00:23:43.850Z,100627.06
2023-01-01T00:26:14.122Z,100633.19
2023-01-01T00:28:44.945Z,100631.41
2023-01-01T00:31:17.297Z,100622.72
2023-01-01T00:33:46.471Z,100628.03
2023-01-01T00:36:16.565Z,100622.91
2023-01-01T00:38:46.798Z,100626.41
2023-01-01T00:41:17.186Z,100620.28
2023-01-01T00:43:47.390Z,100624.63
2023-01-01T00:46:16.644Z,100634.41
2023-01-01T00:48:45.654Z,100636.34
2023-01-01T00:51:14.829Z,100644.19
2023-01-01T00:53:43.454Z,100646.75
2023-01-01T00:56:12.468Z,100636.13
2023-01-01T00:58:40.991Z,100641.31
2023-01-01T01:01:11.283Z,100638.66
2023-01-01T01:03:40.528Z,100637.88
2023-01-01T01:06:12.908Z,100643.94
2023-01-01T01:08:42.763Z,100645.72
2023-01-01T01:11:14.282Z,100647.44
2023-01-01T01:13:44.589Z,100636.97
2023-01-01T01:16:17.254Z,100644.03
2023-01-01T01:18:47.063Z,100634.34
2023-01-01T01:21:16.894Z,100626.41
2023-01-01T01:23:46.345Z,100623.81
2023-01-01T01:26:17.530Z,100624.81
2023-01-01T01:28:49.823Z,100622.09
2023-01-01T01:31:21.515Z,100625.63
2023-01-01T01:33:50.724Z,100625.81
2023-01-01T01:36:20.423Z,100626.69
2023-01-01T01:38:48.954Z,100624.19
2023-01-01T01:41:27.759Z,100624.28
2023-01-01T01:44:00.112Z,100621.50
2023-01-01T01:46:36.334Z,100620.53
2023-01-01T01:49:10.559Z,100612.56
2023-01-01T01:51:42.118Z,100613.56
2023-01-01T01:54:13.648Z,100603.91
2023-01-01T01:56:48.916Z,100611.75
2023-01-01T01:59:20.112Z,100616.03
2023-01-01T02:01:50.504Z,100615.09
2023-01-01T02:04:19.449Z,100610.66
2023-01-01T02:06:49.042Z,100617.72
2023-01-01T02:09:18.601Z,100613.41
2023-01-01T02:11:47.472Z,100614.44
2023-01-01T02:14:16.134Z,100606.44
2023-01-01T02:16:50.007Z,100604.75
2023-01-01T02:19:34.159Z,100606.44
2023-01-01T02:22:14.602Z,100614.34
2023-01-01T02:25:07.315Z,100601.91
2023-01-01T02:27:48.443Z,100603.59
2023-01-01T02:30:19.417Z,100605.31
2023-01-01T02:32:53.233Z,100603.59
2023-01-01T02:35:35.893Z,100612.38
2023-01-01T02:38:15.540Z,100612.22
2023-01-01T02:40:48.292Z,100609.44
2023-01-01T02:43:21.597Z,100618.22
2023-01-01T02:45:55.165Z,100617.22
2023-01-01T02:48:40.138Z,100616.13
2023-01-01T02:51:18.733Z,100617.91
2023-01-01T02:53:53.886Z,100618.94
2023-01-01T02:56:34.738Z,100617.25
2023-01-01T02:59:35.986Z,100612.84
2023-01-01T03:02:17.087Z,100623.78
2023-01-01T03:04:58.739Z,100618.72
2023-01-01T03:07:42.215Z,100623.44
2023-01-01T03:10:16.571Z,100626.88
2023-01-01T03:12:54.580Z,100625.94
2023-01-01T03:15:29.179Z,100618.88
2023-01-01T03:18:04.259Z,100621.44
2023-01-01T03:20:39.825Z,100634.66
2023-01-01T03:23:13.263Z,100631.19
2023-01-01T03:25:48.417Z,100639.94
2023-01-01T03:28:21.474Z,100632.06
2023-01-01T03:30:53.864Z,100633.88
2023-01-01T03:33:28.785Z,100630.34
2023-01-01T03:36:02.412Z,100633.06
2023-01-01T03:38:36.594Z,100625.22
2023-01-01T03:41:11.464Z,100625.22
2023-01-01T03:43:49.497Z,100627.88
2023-01-01T03:46:31.561Z,100631.41
2023-01-01T03:49:04.275Z,100630.59
2023-01-01T03:51:55.879Z,100634.03
2023-01-01T03:54:32.023Z,100633.22
2023-01-01T03:57:10.850Z,100643.75
2023-01-01T03:59:45.131Z,100635.88
2023-01-01T04:02:20.143Z,100643.78
2023-01-01T04:04:51.169Z,100629.75
2023-01-01T04:07:20.780Z,100629.81
2023-01-01T04:09:53.182Z,100628.91
2023-01-01T04:12:22.809Z,100635.22
2023-01-01T04:14:51.428Z,100635.22
2023-01-01T04:17:20.861Z,100634.47
2023-01-01T04:19:55.046Z,100636.25
2023-01-01T04:22:24.220Z,100627.44
2023-01-01T04:24:52.848Z,100623.94
2023-01-01T04:27:21.766Z,100620.31
2023-01-01T04:29:50.408Z,100629.16
2023-01-01T04:32:19.262Z,100630.84
2023-01-01T04:34:47.940Z,100619.41
2023-01-01T04:37:18.428Z,100628.19
2023-01-01T04:39:47.046Z,100614.09
2023-01-01T04:42:15.866Z,100612.28
2023-01-01T04:44:44.474Z,100612.22
2023-01-01T04:47:13.554Z,100616.56
2023-01-01T04:49:42.114Z,100613.91
2023-01-01T04:52:11.135Z,100620.06
2023-01-01T04:54:41.130Z,100617.53
2023-01-01T04:57:09.976Z,100628.22
2023-01-01T04:59:38.591Z,100630.00
2023-01-01T05:02:08.429Z,100629.94
2023-01-01T05:04:37.318Z,100634.34
2023-01-01T05:07:06.148Z,100631.59
2023-01-01T05:09:34.656Z,100635.06
2023-01-01T05:12:05.369Z,100636.78
2023-01-01T05:14:34.815Z,100640.28
2023-01-01T05:17:03.654Z,100632.31
2023-01-01T05:19:32.368Z,100630.53
2023-01-01T05:22:06.846Z,100625.28
2023-01-01T05:24:38.814Z,100623.53
2023-01-01T05:27:09.158Z,100626.16
2023-01-01T05:29:38.655Z,100634.97
2023-01-01T05:37:02.829Z,100635.75
2023-01-01T05:39:31.423Z,100637.59
2023-01-01T05:42:00.404Z,100637.59
2023-01-01T05:44:30.308Z,100643.72
2023-01-01T05:46:59.256Z,100636.63
2023-01-01T05:49:28.401Z,100645.44
2023-01-01T05:51:57.244Z,100637.66
2023-01-01T05:54:25.753Z,100645.56
2023-01-01T05:56:54.615Z,100646.34
2023-01-01T05:59:23.157Z,100646.38
2023-01-01T06:01:53.535Z,100647.19
2023-01-01T06:04:22.432Z,100652.44
2023-01-01T06:06:51.406Z,100654.16
2023-01-01T06:09:21.110Z,100657.69
2023-01-01T06:11:49.978Z,100655.03
2023-01-01T06:14:18.512Z,100661.16
2023-01-01T06:16:47.603Z,100665.53
2023-01-01T06:19:17.586Z,100665.53
2023-01-01T06:21:46.478Z,100666.44
2023-01-01T06:24:15.000Z,100670.94
2023-01-01T06:26:43.902Z,100673.56
2023-01-01T06:29:12.423Z,100676.16
2023-01-01T06:31:41.326Z,100680.56
2023-01-01T06:34:10.438Z,100684.06
2023-01-01T06:36:40.690Z,100692.78
2023-01-01T06:39:09.336Z,100699.78
2023-01-01T06:41:38.217Z,100691.94
2023-01-01T06:44:07.120Z,100701.59
2023-01-01T06:46:37.230Z,100705.97
2023-01-01T06:49:08.004Z,100702.44
2023-01-01T06:51:41.145Z,100704.19
2023-01-01T06:54:10.797Z,100709.47
2023-01-01T06:56:40.361Z,100714.69
2023-01-01T06:59:08.943Z,100712.91
2023-01-01T07:01:40.103Z,100720.78
2023-01-01T07:04:16.116Z,100719.88
2023-01-01T07:06:46.490Z,100720.78
2023-01-01T07:09:15.016Z,100727.72
2023-01-01T07:11:44.139Z,100728.50
2023-01-01T07:14:12.658Z,100727.56
2023-01-01T07:16:41.601Z,100725.75
2023-01-01T07:19:10.161Z,100735.31
2023-01-01T07:21:44.676Z,100738.69
2023-01-01T07:24:16.236Z,100736.91
2023-01-01T07:26:46.244Z,100736.84
2023-01-01T07:29:14.870Z,100735.03
2023-01-01T07:31:45.304Z,100732.34
2023-01-01T07:34:16.281Z,100732.25
2023-01-01T07:36:45.216Z,100741.00
2023-01-01T07:39:15.250Z,100733.84
2023-01-01T07:41:44.150Z,100735.50
2023-01-01T07:44:15.083Z,100734.53
2023-01-01T07:46:44.101Z,100737.94
2023-01-01T07:49:12.975Z,100725.47
2023-01-01T07:51:42.199Z,100726.22
2023-01-01T07:54:10.775Z,100728.81
2023-01-01T07:56:41.041Z,100731.38
2023-01-01T07:59:09.594Z,100729.47
2023-01-01T08:01:38.948Z,100727.66
2023-01-01T08:04:07.589Z,100727.50
2023-01-01T08:06:36.521Z,100719.34
2023-01-01T08:09:05.272Z,100723.63
2023-01-01T08:11:34.153Z,100720.88
2023-01-01T08:14:04.702Z,100718.06
2023-01-01T08:16:33.690Z,100725.78
2023-01-01T08:19:02.418Z,100718.50
2023-01-01T08:21:31.338Z,100720.09
2023-01-01T08:24:00.241Z,100711.97
2023-01-01T08:26:30.954Z,100710.06
2023-01-01T08:28:59.798Z,100706.41
2023-01-01T08:31:30.118Z,100711.47
2023-01-01T08:33:58.759Z,100704.25
2023-01-01T08:36:28.015Z,100701.34
2023-01-01T08:38:56.608Z,100694.97
2023-01-01T08:41:25.544Z,100701.81
2023-01-01T08:43:54.154Z,100693.72
2023-01-01T08:46:23.050Z,100700.72
2023-01-01T08:48:53.190Z,100699.06
2023-01-01T08:51:22.257Z,100705.16
2023-01-01T08:53:51.669Z,100696.19
2023-01-01T08:56:21.476Z,100686.31
2023-01-01T08:58:50.529Z,100681.97
2023-01-01T09:01:22.128Z,100681.19
2023-01-01T09:03:52.272Z,100680.06
2023-01-01T09:06:21.356Z,100678.31
2023-01-01T09:08:50.055Z,100677.66
2023-01-01T09:11:24.509Z,100665.91
2023-01-01T09:13:53.836Z,100661.59
2023-01-01T09:16:23.819Z,100647.41
2023-01-01T09:18:53.773Z,100657.34
2023-01-01T09:21:22.920Z,100643.88
2023-01-01T09:23:51.488Z,100644.50
2023-01-01T09:26:20.382Z,100636.66
2023-01-01T09:28:49.117Z,100637.19
2023-01-01T09:31:18.236Z,100647.22
2023-01-01T09:33:46.833Z,100639.19
2023-01-01T09:36:29.279Z,100650.03
2023-01-01T09:38:59.529Z,100636.19
2023-01-01T09:41:42.827Z,100633.94
2023-01-01T09:44:23.761Z,100633.91
2023-01-01T09:46:53.625Z,100637.41
2023-01-01T09:49:33.065Z,100623.81
2023-01-01T09:52:05.762Z,100627.47
2023-01-01T09:54:38.915Z,100621.13
2023-01-01T09:57:19.851Z,100623.72
2023-01-01T09:59:48.806Z,100615.88
2023-01-01T10:02:37.050Z,100614.59
2023-01-01T10:05:20.755Z,100611.91
2023-01-01T10:07:57.551Z,100608.25
2023-01-01T10:10:37.394Z,100609.94
2023-01-01T10:13:16.802Z,100608.97
2023-01-01T10:15:56.824Z,100608.03
2023-01-01T10:18:33.444Z,100607.09
2023-01-01T10:21:08.840Z,100599.06
2023-01-01T10:23:44.880Z,100595.44
2023-01-01T10:26:18.533Z,100599.19
2023-01-01T10:28:56.037Z,100598.88
2023-01-01T10:31:32.380Z,100589.81
2023-01-01T10:34:08.317Z,100587.13
2023-01-01T10:36:36.989Z,100579.97
2023-01-01T10:39:07.213Z,100577.09
2023-01-01T10:41:35.849Z,100570.69
2023-01-01T10:44:04.911Z,100563.50
2023-01-01T10:46:38.423Z,100558.72
2023-01-01T10:49:12.413Z,100563.97
2023-01-01T10:51:45.955Z,100560.19
2023-01-01T10:54:35.773Z,100552.28
2023-01-01T10:57:15.954Z,100548.59
2023-01-01T10:59:53.560Z,100544.06
2023-01-01T11:02:25.279Z,100541.22
2023-01-01T11:05:20.687Z,100539.59
2023-01-01T11:07:50.243Z,100531.91
2023-01-01T11:10:23.362Z,100527.22
2023-01-01T11:13:09.196Z,100523.69
2023-01-01T11:15:40.478Z,100524.56
2023-01-01T11:18:15.556Z,100517.19
2023-01-01T11:20:45.507Z,100521.19
2023-01-01T11:23:31.880Z,100508.50
2023-01-01T11:26:05.169Z,100513.19
2023-01-01T11:28:35.199Z,100508.81
2023-01-01T11:31:15.449Z,100501.38
2023-01-01T11:33:50.354Z,100497.16
2023-01-01T11:36:24.374Z,100494.69
2023-01-01T11:39:07.171Z,100493.72
2023-01-01T11:41:44.991Z,100485.22
2023-01-01T11:44:23.919Z,100478.50
2023-01-01T11:46:53.251Z,100479.19
2023-01-01T11:49:27.026Z,100479.69
2023-01-01T11:51:56.151Z,100482.34
2023-01-01T11:54:31.257Z,100472.63
2023-01-01T11:57:08.646Z,100462.91
2023-01-01T11:59:44.924Z,100460.66
2023-01-01T12:02:21.201Z,100457.66
2023-01-01T12:04:55.034Z,100456.53
2023-01-01T12:07:30.937Z,100456.34
2023-01-01T12:10:04.561Z,100452.88
2023-01-01T12:12:40.093Z,100444.03
2023-01-01T12:15:19.215Z,100442.91
2023-01-01T12:17:53.562Z,100432.75
2023-01-01T12:20:27.712Z,100438.03
2023-01-01T12:22:57.805Z,100434.81
2023-01-01T12:25:33.919Z,100431.00
2023-01-01T12:28:16.662Z,100432.72
2023-01-01T12:30:53.111Z,100428.22
2023-01-01T12:33:51.017Z,100421.34
2023-01-01T12:36:37.590Z,100428.50
2023-01-01T12:40:10.657Z,100430.47
2023-01-01T12:42:58.350Z,100435.84
2023-01-01T12:45:53.040Z,100439.38
2023-01-01T12:48:41.586Z,100433.69
2023-01-01T12:51:26.524Z,100438.16
2023-01-01T12:54:13.477Z,100427.50
2023-01-01T12:56:48.131Z,100415.06
2023-01-01T12:59:22.618Z,100421.25
2023-01-01T13:01:57.678Z,100410.25
2023-01-01T13:04:26.386Z,100412.34
2023-01-01T13:07:03.823Z,100413.16
2023-01-01T13:09:36.740Z,100411.19
2023-01-01T13:12:08.900Z,100421.09
2023-01-01T13:14:40.565Z,100427.97
2023-01-01T13:17:21.281Z,100418.38
2023-01-01T13:19:51.363Z,100419.84
2023-01-01T13:22:42.882Z,100421.34
2023-01-01T13:25:23.244Z,100424.81
2023-01-01T13:28:14.234Z,100425.50
2023-01-01T13:30:53.235Z,100423.81
2023-01-01T13:33:27.326Z,100419.47
2023-01-01T13:36:31.677Z,100422.50
2023-01-01T13:39:02.131Z,100432.09
2023-01-01T13:41:40.394Z,100436.50
2023-01-01T13:44:27.744Z,100435.00
2023-01-01T13:47:25.773Z,100441.94
2023-01-01T13:50:06.604Z,100441.28
2023-01-01T13:53:03.600Z,100443.00
2023-01-01T13:55:57.873Z,100442.84
2023-01-01T13:58:52.218Z,100443.75
2023-01-01T14:01:38.136Z,100452.13
2023-01-01T14:04:13.746Z,100443.88
2023-01-01T14:06:49.413Z,100442.28
2023-01-01T14:09:21.549Z,100443.13
2023-01-01T14:11:50.557Z,100449.53
2023-01-01T14:14:24.531Z,100455.94
2023-01-01T14:16:55.216Z,100459.38
2023-01-01T14:19:25.524Z,100458.56
2023-01-01T14:21:56.604Z,100460.38
2023-01-01T14:24:26.624Z,100460.47
2023-01-01T14:26:56.610Z,100463.13
2023-01-01T14:29:28.745Z,100461.56
2023-01-01T14:31:59.844Z,100453.63
2023-01-01T14:34:31.662Z,100467.06
2023-01-01T14:37:03.715Z,100467.19
2023-01-01T14:39:33.422Z,100467.56
2023-01-01T14:42:05.333Z,100465.84
2023-01-01T14:44:37.631Z,100462.31
2023-01-01T14:47:21.337Z,100468.56
2023-01-01T14:49:50.664Z,100466.94
2023-01-01T14:52:26.015Z,100464.13
2023-01-01T14:54:56.932Z,100462.69
2023-01-01T14:57:28.552Z,100460.97
2023-01-01T14:59:57.260Z,100453.84
2023-01-01T15:02:29.221Z,100461.97
2023-01-01T15:04:59.514Z,100454.09
2023-01-01T15:07:32.295Z,100457.88
2023-01-01T15:10:03.646Z,100462.47
2023-01-01T15:12:37.478Z,100465.28
2023-01-01T15:15:07.743Z,100460.31
2023-01-01T15:17:47.626Z,100464.00
2023-01-01T15:20:23.356Z,100465.13
2023-01-01T15:22:55.581Z,100468.31
2023-01-01T15:25:25.222Z,100460.34
2023-01-01T15:27:56.322Z,100466.69
2023-01-01T15:30:28.376Z,100459.00
2023-01-01T15:33:06.620Z,100461.09
2023-01-01T15:35:38.230Z,100455.78
2023-01-01T15:38:17.335Z,100453.13
2023-01-01T15:40:52.762Z,100455.16
2023-01-01T15:43:25.211Z,100457.25
2023-01-01T15:45:59.906Z,100460.19
2023-01-01T15:48:33.592Z,100460.41
2023-01-01T15:51:13.683Z,100457.50
2023-01-01T15:53:51.519Z,100463.69
2023-01-01T15:56:23.677Z,100453.25
2023-01-01T15:58:56.520Z,100457.63
2023-01-01T16:01:28.920Z,100451.66
2023-01-01T16:04:04.554Z,100446.63
2023-01-01T16:06:33.381Z,100440.59
2023-01-01T16:09:03.569Z,100433.13
2023-01-01T16:11:32.150Z,100437.94
2023-01-01T16:14:01.030Z,100441.59
2023-01-01T16:16:31.425Z,100433.97
2023-01-01T16:19:00.411Z,100440.22
2023-01-01T16:21:31.052Z,100446.44
2023-01-01T16:24:00.232Z,100441.34
2023-01-01T16:26:30.254Z,100435.22
2023-01-01T16:28:59.206Z,100441.50
2023-01-01T16:31:28.972Z,100435.53
2023-01-01T16:34:00.148Z,100443.31
2023-01-01T16:36:29.524Z,100450.47
2023-01-01T16:38:59.528Z,100453.97
2023-01-01T16:41:30.375Z,100462.75
2023-01-01T16:44:00.245Z,100466.50
2023-01-01T16:46:28.907Z,100467.34
2023-01-01T16:48:58.112Z,100466.41
2023-01-01T16:51:29.740Z,100474.28
2023-01-01T16:54:00.971Z,100470.63
2023-01-01T16:56:31.596Z,100468.84
2023-01-01T16:59:03.527Z,100460.16
2023-01-01T17:01:32.814Z,100459.41
2023-01-01T17:04:02.657Z,100460.25
2023-01-01T17:06:31.404Z,100461.19
2023-01-01T17:09:00.939Z,100462.88
2023-01-01T17:11:31.015Z,100460.19
2023-01-01T17:14:00.001Z,100456.84
2023-01-01T17:16:34.391Z,100454.31
2023-01-01T17:19:16.115Z,100456.97
2023-01-01T17:21:48.412Z,100451.75
2023-01-01T17:24:19.435Z,100464.78
2023-01-01T17:26:52.771Z,100464.22
2023-01-01T17:29:22.291Z,100468.44
2023-01-01T17:31:50.967Z,100466.53
2023-01-01T17:34:19.883Z,100472.28
2023-01-01T17:36:49.572Z,100464.59
2023-01-01T17:39:18.488Z,100471.59
2023-01-01T17:41:47.351Z,100468.69
2023-01-01T17:44:17.607Z,100471.97
2023-01-01T17:46:46.504Z,100471.97
2023-01-01T17:49:15.430Z,100476.28
2023-01-01T17:51:44.063Z,100480.56
2023-01-01T17:54:13.982Z,100475.88
2023-01-01T17:56:42.792Z,100476.69
2023-01-01T17:59:11.717Z,100484.22
2023-01-01T18:01:42.241Z,100480.69
2023-01-01T18:04:12.322Z,100486.19
2023-01-01T18:06:43.684Z,100499.09
2023-01-01T18:09:16.339Z,100501.84
2023-01-01T18:11:45.619Z,100500.47
2023-01-01T18:14:18.440Z,100498.44
2023-01-01T18:16:52.554Z,100495.59
2023-01-01T18:19:21.568Z,100487.56
2023-01-01T18:21:50.154Z,100497.31
2023-01-01T18:24:19.077Z,100499.13
2023-01-01T18:26:47.807Z,100510.59
2023-01-01T18:29:16.883Z,100509.66
2023-01-01T18:31:45.596Z,100514.94
2023-01-01T18:34:16.215Z,100518.47
2023-01-01T18:36:47.152Z,100514.25
2023-01-01T18:39:17.905Z,100519.63
2023-01-01T18:42:10.039Z,100525.69
2023-01-01T18:44:39.221Z,100533.09
2023-01-01T18:47:14.778Z,100529.53
2023-01-01T18:49:49.814Z,100535.03
2023-01-01T18:52:23.828Z,100537.25
2023-01-01T18:55:02.696Z,100531.25
2023-01-01T18:57:33.009Z,100530.56
2023-01-01T19:00:17.985Z,100534.13
2023-01-01T19:02:55.582Z,100543.75
2023-01-01T19:05:28.122Z,100535.59
2023-01-01T19:08:11.661Z,100546.94
2023-01-01T19:10:43.974Z,100552.22
2023-01-01T19:13:19.318Z,100558.25
2023-01-01T19:15:50.048Z,100556.53
2023-01-01T19:18:20.885Z,100553.84
2023-01-01T19:20:54.275Z,100550.31
2023-01-01T19:23:24.657Z,100560.00
2023-01-01T19:25:54.278Z,100563.50
2023-01-01T19:28:34.787Z,100558.09
2023-01-01T19:31:05.949Z,100545.91
2023-01-01T19:33:34.760Z,100537.97
2023-01-01T19:36:05.816Z,100532.78
2023-01-01T19:38:34.758Z,100538.94
2023-01-01T19:41:03.999Z,100535.47
2023-01-01T19:43:32.798Z,100539.94
2023-01-01T19:46:01.748Z,100535.59
2023-01-01T19:48:30.472Z,100535.72
2023-01-01T19:50:59.697Z,100534.06
2023-01-01T19:53:29.815Z,100529.84
2023-01-01T19:55:58.770Z,100530.06
2023-01-01T19:58:28.624Z,100529.16
2023-01-01T20:00:57.861Z,100534.41
2023-01-01T20:03:52.824Z,100530.91
2023-01-01T20:06:15.644Z,100529.13
2023-01-01T20:08:45.581Z,100529.16
2023-01-01T20:11:15.372Z,100539.78
2023-01-01T20:13:43.992Z,100531.09
2023-01-01T20:16:12.967Z,100525.00
2023-01-01T20:18:42.191Z,100525.91
2023-01-01T20:21:28.338Z,100532.13
2023-01-01T20:23:58.412Z,100530.31
2023-01-01T20:26:27.386Z,100530.41
2023-01-01T20:29:13.298Z,100527.88
2023-01-01T20:31:43.021Z,100518.16
2023-01-01T20:34:11.951Z,100515.66
2023-01-01T20:36:58.641Z,100520.50
2023-01-01T20:39:29.399Z,100519.53
2023-01-01T20:41:58.392Z,100520.38
2023-01-01T20:44:27.448Z,100509.84
2023-01-01T20:46:56.731Z,100517.00
2023-01-01T20:49:25.548Z,100523.22
2023-01-01T20:51:54.766Z,100521.25
2023-01-01T20:54:23.865Z,100526.53
2023-01-01T20:56:54.597Z,100516.09
2023-01-01T20:59:38.944Z,100514.34
2023-01-01T21:02:10.647Z,100519.06
2023-01-01T21:04:40.685Z,100516.44
2023-01-01T21:07:11.248Z,100520.81
2023-01-01T21:09:41.230Z,100514.59
2023-01-01T21:12:11.920Z,100524.09
2023-01-01T21:14:40.545Z,100524.00
2023-01-01T21:17:22.197Z,100526.50
2023-01-01T21:19:51.584Z,100528.22
2023-01-01T21:22:20.467Z,100536.97
2023-01-01T21:24:53.925Z,100533.47
2023-01-01T21:27:33.804Z,100539.59
2023-01-01T21:30:02.960Z,100536.41
2023-01-01T21:32:40.078Z,100530.13
2023-01-01T21:35:21.182Z,100544.00
2023-01-01T21:37:52.682Z,100533.56
2023-01-01T21:40:39.914Z,100545.63
2023-01-01T21:43:30.717Z,100542.03
2023-01-01T21:46:19.644Z,100541.25
2023-01-01T21:48:56.586Z,100537.72
2023-01-01T21:51:27.190Z,100529.03
2023-01-01T21:54:07.793Z,100535.06
2023-01-01T21:56:40.865Z,100531.69
2023-01-01T21:59:34.912Z,100528.19
2023-01-01T22:02:32.594Z,100533.34
2023-01-01T22:05:03.765Z,100535.34
2023-01-01T22:10:26.763Z,100533.66
2023-01-01T22:12:59.224Z,100542.44
2023-01-01T22:15:38.122Z,100531.91
2023-01-01T22:18:23.689Z,100526.59
2023-01-01T22:20:56.680Z,100530.25
2023-01-01T22:23:33.545Z,100518.81
2023-01-01T22:26:06.280Z,100517.13
2023-01-01T22:28:43.130Z,100514.50
2023-01-01T22:31:18.452Z,100506.66
2023-01-01T22:33:49.389Z,100516.44
2023-01-01T22:36:22.459Z,100510.28
2023-01-01T22:38:53.546Z,100510.34
2023-01-01T22:41:22.763Z,100508.66
2023-01-01T22:43:57.254Z,100513.09
2023-01-01T22:46:33.565Z,100508.66
2023-01-01T22:49:12.010Z,100513.09
2023-01-01T22:51:44.863Z,100513.97
2023-01-01T22:54:13.546Z,100516.66
2023-01-01T22:56:42.611Z,100521.06
2023-01-01T22:59:11.374Z,100523.84
2023-01-01T23:01:42.224Z,100517.72
2023-01-01T23:04:10.930Z,100518.72
2023-01-01T23:06:40.162Z,100518.72
2023-01-01T23:09:11.341Z,100512.59
2023-01-01T23:11:40.800Z,100513.44
2023-01-01T23:14:27.117Z,100499.44
2023-01-01T23:16:57.465Z,100502.06
2023-01-01T23:19:26.047Z,100502.94
2023-01-01T23:21:55.045Z,100500.25
2023-01-01T23:24:25.504Z,100496.75
2023-01-01T23:26:55.187Z,100493.19
2023-01-01T23:29:28.594Z,100492.34
2023-01-01T23:32:06.456Z,100487.97
2023-01-01T23:34:35.325Z,100487.94
2023-01-01T23:37:07.468Z,100482.66
2023-01-01T23:39:36.558Z,100483.53
2023-01-01T23:42:05.656Z,100495.88
2023-01-01T23:44:34.691Z,100492.41
2023-01-01T23:47:05.589Z,100494.97
2023-01-01T23:49:34.964Z,100491.50
2023-01-01T23:52:05.417Z,100494.97
2023-01-01T23:54:34.160Z,100500.28
2023-01-01T23:57:03.607Z,100497.66
2023-01-01T23:59:32.420Z,100501.16
